Blue Star 1 — SWET — position and weather

sailwx.info

Track history (hours):
 
Tides and Currents Weather Stations Pressure Air Temp Water Temp Dewpoint Dewpoint Depression Visibility Wind Speed Wind Dir Waves Ship Positions

Blue Star 1

Last reported at 2015-May-06 15:32 UTC. Time now 2015-May-06 16:32 UTC.
Position N 37°56' E 023°38'.

Length 176 m; draft 6.5 m.

Type: Passenger vessel. MMSI: 239710000.

Date/timePositionNaut miles runAvg speedWind from/ knotsBaromVisibWave heightAir tempDewpointWater temp
2015-May-06 15:32N 37°56' E 023°38'0 0.0
2015-May-06 14:32N 37°56' E 023°38'0 0.0
2015-May-06 13:29N 37°56' E 023°38'0 0.0
2015-May-06 12:32N 37°56' E 023°38'0 0.0
2015-May-06 11:32N 37°56' E 023°38'0 0.0
2015-May-06 10:32N 37°56' E 023°38'0 0.0
2015-May-06 09:31N 37°56' E 023°38'0 0.0
2015-May-06 08:31N 37°56' E 023°38'0 0.0
2015-May-06 07:31N 37°56' E 023°38'0 0.0
2015-May-06 06:31N 37°56' E 023°38'0 0.0
2015-May-06 05:28N 37°56' E 023°38'0 0.0
2015-May-06 04:31N 37°56' E 023°38'0 0.0
2015-May-06 03:34N 37°56' E 023°38'1313.3
2015-May-06 02:33N 37°44' E 023°44'2322.4
2015-May-06 01:32N 37°33' E 024°09'2722.9
2015-May-06 00:20N 37°31' E 024°44'1114.5
2015-May-05 23:33N 37°26' E 024°57'1818.3
2015-May-05 22:34N 37°20' E 025°18'2323.3
2015-May-05 21:33N 37°13' E 025°46'4622.7
2015-May-05 19:33N 36°59' E 026°40'11 0.6
2015-May-05 01:21N 37°08' E 026°46'4013.8
2015-May-04 22:29N 37°18' E 025°57'2021.9
2015-May-04 21:34N 37°20' E 025°32'2221.9
2015-May-04 20:33N 37°23' E 025°05'9 8.7
2015-May-04 19:34N 37°30' E 024°57'3524.4
2015-May-04 18:07N 37°31' E 024°12'1425.1
2015-May-04 17:33N 37°36' E 023°56'2322.8
2015-May-04 16:33N 37°53' E 023°37'3 3.2
2015-May-04 15:33N 37°56' E 023°38'0 0.0
2015-May-04 14:33N 37°56' E 023°38'0 0.0
2015-May-04 13:33N 37°56' E 023°38'0 0.0
2015-May-04 12:33N 37°56' E 023°38'0 0.0
2015-May-04 11:33N 37°56' E 023°38'0 0.0
2015-May-04 10:33N 37°56' E 023°38'0 0.0
2015-May-04 09:33N 37°56' E 023°38'0 0.0
2015-May-04 08:33N 37°56' E 023°38'0 0.0
2015-May-04 07:34N 37°56' E 023°38'0 0.0
2015-May-04 06:33N 37°56' E 023°38'0 0.0
2015-May-04 05:33N 37°56' E 023°38'1110.7
2015-May-04 04:34N 37°46' E 023°42'2922.3
2015-May-04 03:16N 37°31' E 024°13'2422.9
2015-May-04 02:12N 37°32' E 024°44'1218.7
2015-May-04 01:34N 37°26' E 024°57'1414.1
2015-May-04 00:34N 37°21' E 025°14'2323.3
2015-May-03 23:34N 37°19' E 025°43'2323.1
2015-May-03 22:33N 37°16' E 026°12'4912.1
2015-May-03 18:28N 36°55' E 027°08'3311.0
2015-May-03 15:31N 36°34' E 027°39'3 0.1
2015-May-02 10:16N 36°35' E 027°36'6410.6
2015-May-02 04:14N 37°15' E 026°34'1622.7
2015-May-02 03:31N 37°16' E 026°14'2222.9
2015-May-02 02:34N 37°19' E 025°46'2222.4
2015-May-02 01:33N 37°21' E 025°18'1817.7
2015-May-02 00:33N 37°26' E 024°57'5618.8
2015-May-01 21:33N 37°38' E 023°47'2020.0
2015-May-01 20:33N 37°56' E 023°37'0 0.1
2015-May-01 19:31N 37°56' E 023°38'0 0.0
2015-May-01 18:21N 37°56' E 023°38'0 0.0
2015-May-01 17:33N 37°56' E 023°38'0 0.0
2015-May-01 16:33N 37°56' E 023°38'0 0.0
2015-May-01 15:33N 37°56' E 023°38'0 0.0
2015-May-01 14:27N 37°56' E 023°38'0 0.0
2015-May-01 13:33N 37°56' E 023°38'0 0.0
2015-May-01 12:33N 37°56' E 023°38'0 0.0
2015-May-01 11:33N 37°56' E 023°38'0 0.0
2015-May-01 10:33N 37°56' E 023°38'0 0.0
2015-May-01 09:30N 37°56' E 023°38'0 0.0
2015-May-01 08:33N 37°56' E 023°38'0 0.0
2015-May-01 07:29N 37°56' E 023°38'0 0.0
2015-May-01 06:32N 37°56' E 023°38'0 0.0
2015-May-01 05:29N 37°56' E 023°38'9 9.3
2015-May-01 04:33N 37°48' E 023°41'2221.6
2015-May-01 03:32N 37°34' E 024°02'3323.0
2015-May-01 02:06N 37°31' E 024°44'1120.9
2015-May-01 01:34N 37°29' E 024°58'8 7.7
2015-May-01 00:33N 37°24' E 025°05'2222.0
2015-Apr-30 23:33N 37°19' E 025°32'2522.3
2015-Apr-30 22:27N 37°17' E 026°04'2122.2
2015-Apr-30 21:29N 37°15' E 026°30'18 8.4
2015-Apr-30 19:22N 37°07' E 026°50'1517.5
2015-Apr-30 18:29N 36°54' E 027°01'3712.7
2015-Apr-30 15:33N 36°34' E 027°40'18 1.7
2015-Apr-30 05:20N 36°44' E 027°21'14 7.5
2015-Apr-30 03:31N 36°55' E 027°13'1818.7
2015-Apr-30 02:33N 37°01' E 026°51'6 5.9
2015-Apr-30 01:32N 37°07' E 026°48'2010.2
2015-Apr-29 23:32N 37°15' E 026°25'2222.8
2015-Apr-29 22:33N 37°18' E 025°57'2222.2
2015-Apr-29 21:33N 37°20' E 025°29'2222.0
2015-Apr-29 20:32N 37°25' E 025°02'5618.7
2015-Apr-29 17:33N 37°36' E 023°53'2322.9
2015-Apr-29 16:33N 37°56' E 023°37'1 0.7
2015-Apr-29 15:16N 37°56' E 023°38'0 0.0
2015-Apr-29 13:19N 37°56' E 023°38'0 0.0
2015-Apr-29 12:31N 37°56' E 023°38'0 0.0
2015-Apr-29 11:31N 37°56' E 023°38'0 0.0
2015-Apr-29 10:28N 37°56' E 023°38'0 0.0
2015-Apr-29 09:31N 37°56' E 023°38'0 0.0
2015-Apr-29 08:33N 37°56' E 023°38'0 0.0
2015-Apr-29 07:27N 37°56' E 023°38'0 0.0
2015-Apr-29 06:32N 37°56' E 023°38'0 0.0
2015-Apr-29 05:32N 37°56' E 023°38'0 0.0
2015-Apr-29 04:32N 37°56' E 023°38'0 0.0
2015-Apr-29 03:29N 37°56' E 023°38'1010.3
2015-Apr-29 02:33N 37°47' E 023°41'2421.7
2015-Apr-29 01:28N 37°33' E 024°06'3022.7
2015-Apr-29 00:07N 37°31' E 024°44'1220.6
2015-Apr-28 23:33N 37°27' E 024°58'9 8.9
2015-Apr-28 22:33N 37°23' E 025°08'2322.9
2015-Apr-28 21:33N 37°16' E 025°35'10617.6
2015-Apr-28 15:33N 36°35' E 027°37'17 1.8
2015-Apr-28 06:33N 36°30' E 027°56'2725.3
2015-Apr-28 05:29N 36°38' E 027°24'19 9.9
2015-Apr-28 03:32N 36°56' E 027°14'1919.4
2015-Apr-28 02:33N 36°60' E 026°51'7 6.7
2015-Apr-28 01:33N 37°07' E 026°49'1812.9
2015-Apr-28 00:11N 37°19' E 026°34'1115.6
2015-Apr-27 23:29N 37°16' E 026°21'2223.6
2015-Apr-27 22:33N 37°18' E 025°53'2019.9
2015-Apr-27 21:33N 37°20' E 025°29'2222.2
2015-Apr-27 20:33N 37°25' E 025°01'10 9.8
2015-Apr-27 19:33N 37°32' E 024°52'2722.6
2015-Apr-27 18:21N 37°30' E 024°18'1822.2
2015-Apr-27 17:33N 37°36' E 023°57'2121.0
2015-Apr-27 16:33N 37°49' E 023°37'7 7.0
2015-Apr-27 15:33N 37°56' E 023°38'0 0.0
2015-Apr-27 14:33N 37°56' E 023°38'0 0.0
2015-Apr-27 13:33N 37°56' E 023°38'0 0.0
2015-Apr-27 12:33N 37°56' E 023°38'0 0.0
2015-Apr-27 11:26N 37°56' E 023°38'0 0.0
2015-Apr-27 10:32N 37°56' E 023°38'0 0.0
2015-Apr-27 09:32N 37°56' E 023°38'0 0.0
2015-Apr-27 08:32N 37°56' E 023°38'0 0.0
2015-Apr-27 07:32N 37°56' E 023°38'0 0.0
2015-Apr-27 06:32N 37°56' E 023°38'0 0.0
2015-Apr-27 05:28N 37°56' E 023°38'9 9.4
2015-Apr-27 04:33N 37°48' E 023°41'2121.2
2015-Apr-27 03:33N 37°35' E 024°02'3322.3
2015-Apr-27 02:04N 37°31' E 024°44'1121.4
2015-Apr-27 01:33N 37°29' E 024°57'9 9.4
2015-Apr-27 00:34N 37°23' E 025°06'2424.0
2015-Apr-26 23:33N 37°19' E 025°37'2323.3
2015-Apr-26 22:33N 37°16' E 026°05'2322.6
2015-Apr-26 21:32N 37°15' E 026°34'  
Track history (hours):
 
Tides and Currents Weather Stations Pressure Air Temp Water Temp Dewpoint Dewpoint Depression Visibility Wind Speed Wind Dir Waves Ship Positions

Blue Star 1

Last reported at 2015-May-06 15:32 UTC. Time now 2015-May-06 16:32 UTC.
Position N 37°56' E 023°38'.

Length 176 m; draft 6.5 m.

Type: Passenger vessel. MMSI: 239710000.

Date/timePositionNaut miles runAvg speedWind from/ knotsBaromVisibWave heightAir tempDewpointWater temp
2015-May-06 15:32N 37°56' E 023°38'0 0.0
2015-May-06 14:32N 37°56' E 023°38'0 0.0
2015-May-06 13:29N 37°56' E 023°38'0 0.0
2015-May-06 12:32N 37°56' E 023°38'0 0.0
2015-May-06 11:32N 37°56' E 023°38'0 0.0
2015-May-06 10:32N 37°56' E 023°38'0 0.0
2015-May-06 09:31N 37°56' E 023°38'0 0.0
2015-May-06 08:31N 37°56' E 023°38'0 0.0
2015-May-06 07:31N 37°56' E 023°38'0 0.0
2015-May-06 06:31N 37°56' E 023°38'0 0.0
2015-May-06 05:28N 37°56' E 023°38'0 0.0
2015-May-06 04:31N 37°56' E 023°38'0 0.0
2015-May-06 03:34N 37°56' E 023°38'1313.3
2015-May-06 02:33N 37°44' E 023°44'2322.4
2015-May-06 01:32N 37°33' E 024°09'2722.9
2015-May-06 00:20N 37°31' E 024°44'1114.5
2015-May-05 23:33N 37°26' E 024°57'1818.3
2015-May-05 22:34N 37°20' E 025°18'2323.3
2015-May-05 21:33N 37°13' E 025°46'4622.7
2015-May-05 19:33N 36°59' E 026°40'11 0.6
2015-May-05 01:21N 37°08' E 026°46'4013.8
2015-May-04 22:29N 37°18' E 025°57'2021.9
2015-May-04 21:34N 37°20' E 025°32'2221.9
2015-May-04 20:33N 37°23' E 025°05'9 8.7
2015-May-04 19:34N 37°30' E 024°57'3524.4
2015-May-04 18:07N 37°31' E 024°12'1425.1
2015-May-04 17:33N 37°36' E 023°56'2322.8
2015-May-04 16:33N 37°53' E 023°37'3 3.2
2015-May-04 15:33N 37°56' E 023°38'0 0.0
2015-May-04 14:33N 37°56' E 023°38'0 0.0
2015-May-04 13:33N 37°56' E 023°38'0 0.0
2015-May-04 12:33N 37°56' E 023°38'0 0.0
2015-May-04 11:33N 37°56' E 023°38'0 0.0
2015-May-04 10:33N 37°56' E 023°38'0 0.0
2015-May-04 09:33N 37°56' E 023°38'0 0.0
2015-May-04 08:33N 37°56' E 023°38'0 0.0
2015-May-04 07:34N 37°56' E 023°38'0 0.0
2015-May-04 06:33N 37°56' E 023°38'0 0.0
2015-May-04 05:33N 37°56' E 023°38'1110.7
2015-May-04 04:34N 37°46' E 023°42'2922.3
2015-May-04 03:16N 37°31' E 024°13'2422.9
2015-May-04 02:12N 37°32' E 024°44'1218.7
2015-May-04 01:34N 37°26' E 024°57'1414.1
2015-May-04 00:34N 37°21' E 025°14'2323.3
2015-May-03 23:34N 37°19' E 025°43'2323.1
2015-May-03 22:33N 37°16' E 026°12'4912.1
2015-May-03 18:28N 36°55' E 027°08'3311.0
2015-May-03 15:31N 36°34' E 027°39'3 0.1
2015-May-02 10:16N 36°35' E 027°36'6410.6
2015-May-02 04:14N 37°15' E 026°34'1622.7
2015-May-02 03:31N 37°16' E 026°14'2222.9
2015-May-02 02:34N 37°19' E 025°46'2222.4
2015-May-02 01:33N 37°21' E 025°18'1817.7
2015-May-02 00:33N 37°26' E 024°57'5618.8
2015-May-01 21:33N 37°38' E 023°47'2020.0
2015-May-01 20:33N 37°56' E 023°37'0 0.1
2015-May-01 19:31N 37°56' E 023°38'0 0.0
2015-May-01 18:21N 37°56' E 023°38'0 0.0
2015-May-01 17:33N 37°56' E 023°38'0 0.0
2015-May-01 16:33N 37°56' E 023°38'0 0.0
2015-May-01 15:33N 37°56' E 023°38'0 0.0
2015-May-01 14:27N 37°56' E 023°38'0 0.0
2015-May-01 13:33N 37°56' E 023°38'0 0.0
2015-May-01 12:33N 37°56' E 023°38'0 0.0
2015-May-01 11:33N 37°56' E 023°38'0 0.0
2015-May-01 10:33N 37°56' E 023°38'0 0.0
2015-May-01 09:30N 37°56' E 023°38'0 0.0
2015-May-01 08:33N 37°56' E 023°38'0 0.0
2015-May-01 07:29N 37°56' E 023°38'0 0.0
2015-May-01 06:32N 37°56' E 023°38'0 0.0
2015-May-01 05:29N 37°56' E 023°38'9 9.3
2015-May-01 04:33N 37°48' E 023°41'2221.6
2015-May-01 03:32N 37°34' E 024°02'3323.0
2015-May-01 02:06N 37°31' E 024°44'1120.9
2015-May-01 01:34N 37°29' E 024°58'8 7.7
2015-May-01 00:33N 37°24' E 025°05'2222.0
2015-Apr-30 23:33N 37°19' E 025°32'2522.3
2015-Apr-30 22:27N 37°17' E 026°04'2122.2
2015-Apr-30 21:29N 37°15' E 026°30'18 8.4
2015-Apr-30 19:22N 37°07' E 026°50'1517.5
2015-Apr-30 18:29N 36°54' E 027°01'3712.7
2015-Apr-30 15:33N 36°34' E 027°40'18 1.7
2015-Apr-30 05:20N 36°44' E 027°21'14 7.5
2015-Apr-30 03:31N 36°55' E 027°13'1818.7
2015-Apr-30 02:33N 37°01' E 026°51'6 5.9
2015-Apr-30 01:32N 37°07' E 026°48'2010.2
2015-Apr-29 23:32N 37°15' E 026°25'2222.8
2015-Apr-29 22:33N 37°18' E 025°57'2222.2
2015-Apr-29 21:33N 37°20' E 025°29'2222.0
2015-Apr-29 20:32N 37°25' E 025°02'5618.7
2015-Apr-29 17:33N 37°36' E 023°53'2322.9
2015-Apr-29 16:33N 37°56' E 023°37'1 0.7
2015-Apr-29 15:16N 37°56' E 023°38'0 0.0
2015-Apr-29 13:19N 37°56' E 023°38'0 0.0
2015-Apr-29 12:31N 37°56' E 023°38'0 0.0
2015-Apr-29 11:31N 37°56' E 023°38'0 0.0
2015-Apr-29 10:28N 37°56' E 023°38'0 0.0
2015-Apr-29 09:31N 37°56' E 023°38'0 0.0
2015-Apr-29 08:33N 37°56' E 023°38'0 0.0
2015-Apr-29 07:27N 37°56' E 023°38'0 0.0
2015-Apr-29 06:32N 37°56' E 023°38'0 0.0
2015-Apr-29 05:32N 37°56' E 023°38'0 0.0
2015-Apr-29 04:32N 37°56' E 023°38'0 0.0
2015-Apr-29 03:29N 37°56' E 023°38'1010.3
2015-Apr-29 02:33N 37°47' E 023°41'2421.7
2015-Apr-29 01:28N 37°33' E 024°06'3022.7
2015-Apr-29 00:07N 37°31' E 024°44'1220.6
2015-Apr-28 23:33N 37°27' E 024°58'9 8.9
2015-Apr-28 22:33N 37°23' E 025°08'2322.9
2015-Apr-28 21:33N 37°16' E 025°35'10617.6
2015-Apr-28 15:33N 36°35' E 027°37'17 1.8
2015-Apr-28 06:33N 36°30' E 027°56'2725.3
2015-Apr-28 05:29N 36°38' E 027°24'19 9.9
2015-Apr-28 03:32N 36°56' E 027°14'1919.4
2015-Apr-28 02:33N 36°60' E 026°51'7 6.7
2015-Apr-28 01:33N 37°07' E 026°49'1812.9
2015-Apr-28 00:11N 37°19' E 026°34'1115.6
2015-Apr-27 23:29N 37°16' E 026°21'2223.6
2015-Apr-27 22:33N 37°18' E 025°53'2019.9
2015-Apr-27 21:33N 37°20' E 025°29'2222.2
2015-Apr-27 20:33N 37°25' E 025°01'10 9.8
2015-Apr-27 19:33N 37°32' E 024°52'2722.6
2015-Apr-27 18:21N 37°30' E 024°18'1822.2
2015-Apr-27 17:33N 37°36' E 023°57'2121.0
2015-Apr-27 16:33N 37°49' E 023°37'7 7.0
2015-Apr-27 15:33N 37°56' E 023°38'0 0.0
2015-Apr-27 14:33N 37°56' E 023°38'0 0.0
2015-Apr-27 13:33N 37°56' E 023°38'0 0.0
2015-Apr-27 12:33N 37°56' E 023°38'0 0.0
2015-Apr-27 11:26N 37°56' E 023°38'0 0.0
2015-Apr-27 10:32N 37°56' E 023°38'0 0.0
2015-Apr-27 09:32N 37°56' E 023°38'0 0.0
2015-Apr-27 08:32N 37°56' E 023°38'0 0.0
2015-Apr-27 07:32N 37°56' E 023°38'0 0.0
2015-Apr-27 06:32N 37°56' E 023°38'0 0.0
2015-Apr-27 05:28N 37°56' E 023°38'9 9.4
2015-Apr-27 04:33N 37°48' E 023°41'2121.2
2015-Apr-27 03:33N 37°35' E 024°02'3322.3
2015-Apr-27 02:04N 37°31' E 024°44'1121.4
2015-Apr-27 01:33N 37°29' E 024°57'9 9.4
2015-Apr-27 00:34N 37°23' E 025°06'2424.0
2015-Apr-26 23:33N 37°19' E 025°37'2323.3
2015-Apr-26 22:33N 37°16' E 026°05'2322.6
2015-Apr-26 21:32N 37°15' E 026°34'  

Dump ship's entire track history